Au Gres, Michigan
Current Conditions -  °F | °C
As of 6:53 AM on Tuesday 21 Oct 2014 (Local Time) from KOSC Reporting Station
Overcast Overcast  
Wind Chill: 38°   Ceiling: 1900
Heat Index: 44°   Visibility: 10mi
Dew Point: 40°   Wind: 13mph
Humidity: 84%   Direction: 10°N
Pressure: 29.98"   Gusts: 21mph
Location:  44.05°N, 83.7°W
Report Text: KOSC 211053Z AUTO 01011G18KT 10SM OVC019 06/04 A2998 RMK AO2 T00680042
Loading
Personal Weather Stations






























Interactive Weather Map
Tropical Storm Tracking
New forecast layout! Learn more

10-Day Weather Forecast

Advertisements
Track Severe Weather on mobile